Terminal Aerodrome Forecast
Issued by NWS

Home | Current Version | Previous Version | Text Only | Print | Product List | Glossary On
Versions: 1 2 3 4 5 6 7 8 9 10 11 12 13 14 15 16 17 18 19 20 21
000
FTUS43 KBIS 280527
TAFDIK
TAF
KDIK 280527Z 2806/2906 28009KT P6SM SCT100
     FM281500 31015G22KT P6SM FEW080 FEW250
     FM281700 31020G32KT P6SM FEW070 BKN100
     FM282300 34020G32KT P6SM FEW070 FEW200
     FM290400 33008KT P6SM FEW060 FEW200=

USA.gov is the U.S. government's official web portal to all federal, state and local government web resources and services.